Wheeler Sack Army Air Field Fort Drum US
ICAO: KGTB
IATA: GTB
Category: Medium
Scheduled Services: No

Elevation: 688 ft
TransAlt. 18000 ft.

Airport Communications:
APP/DEP:128.25
ATIS:126.55
GND:121.9
FORT DRUM FLT FLW:141.025
BASE OPS:120.8
PMSV SACK METRO:63.3
TWR:118.75

KGTB Zoom In..

Runways:

(A) RW 03 length 10000 ft width 150 ft
ILS 108.50 / hdg 29

(B) RW 08 length 4501 ft width 150 ft
---- / hdg 84

(C) RW 15 length 4998 ft width 150 ft
---- / hdg 147

(D) RW 21 length 10000 ft width 150 ft
ILS 108.50 / hdg 209

(E) RW 26 length 4501 ft width 150 ft
---- / hdg 264

(F) RW 33 length 4998 ft width 150 ft
---- / hdg 327

Location; KGTB
Day. 29 / Time. 21.56 Zulu
* Altimeter: 29.75
* Temperature: 20° c. 68°f.
* Wind from: 210° Speed 07 kn.
Dewpoint: 18° c.
Visibility: 10 Statute Miles.
Clouds: Overcast 11000 ft.

KGTB 292156Z AUTO 21007KT 10SM OVC110 20/18 A2975 RMK AO2 RAE38DZB38E40 SLP072 P0003 T02020183


Wind From 210°
Speed 07 kn.

 
 
jpsmedia worldairports.se 2020   terms of use